Time;durP1;ratioP1;P1;durP2;ratioP2;P2;SDS_P1;SDS_P2;PMS_P1;PMS_P2;Temp;Humidity;BMP_temperature;BMP_pressure;BME280_temperature;BME280_humidity;BME280_pressure;Samples;Min_cycle;Max_cycle;Signal;HPM_P1;HPM_P2
2023/10/07 00:03:05;;;;;;;;;12.00;11.00;;;;;;;;5055070;27;45505;-43
2023/10/07 00:05:35;;;;;;;;;15.33;9.33;;;;;;;;5071605;28;45361;-43
2023/10/07 00:08:01;;;;;;;;;11.00;11.00;;;;;;;;5080258;27;45449;-43
2023/10/07 00:10:27;;;;;;;;;14.33;12.00;;;;;;;;5078146;28;46207;-42
2023/10/07 00:12:52;;;;;;;;;12.33;9.67;;;;;;;;5079770;28;45388;-42
2023/10/07 00:15:21;;;;;;;;;15.33;10.33;;;;;;;;5078081;28;45333;-42
2023/10/07 00:17:47;;;;;;;;;14.00;10.00;;;;;;;;5078797;27;45432;-43
2023/10/07 00:20:12;;;;;;;;;9.33;9.33;;;;;;;;5078427;28;47187;-43
2023/10/07 00:22:41;;;;;;;;;9.00;7.00;;;;;;;;5079050;28;45601;-42
2023/10/07 00:25:07;;;;;;;;;9.33;8.33;;;;;;;;5078261;28;45475;-42
2023/10/07 00:27:38;;;;;;;;;11.33;10.33;;;;;;;;5078164;28;45525;-43
2023/10/07 00:30:12;;;;;;;;;10.00;9.00;;;;;;;;5077714;27;46485;-44
2023/10/07 00:32:38;;;;;;;;;7.00;7.00;;;;;;;;5077539;27;45542;-42
2023/10/07 00:35:06;;;;;;;;;9.33;8.33;;;;;;;;5078153;28;45584;-42
2023/10/07 00:37:33;;;;;;;;;12.00;9.33;;;;;;;;5073702;28;45608;-42
2023/10/07 00:40:13;;;;;;;;;11.33;7.33;;;;;;;;5073728;28;46268;-43
2023/10/07 00:42:42;;;;;;;;;8.67;7.33;;;;;;;;5073287;27;46242;-41
2023/10/07 00:45:14;;;;;;;;;8.33;7.33;;;;;;;;5073319;28;45652;-43
2023/10/07 00:47:40;;;;;;;;;8.67;7.33;;;;;;;;5075791;28;45589;-41
2023/10/07 00:50:09;;;;;;;;;9.67;7.33;;;;;;;;5072814;28;47095;-41
2023/10/07 00:52:41;;;;;;;;;10.67;8.33;;;;;;;;5072530;28;45623;-41
2023/10/07 00:59:58;;;;;;;;;10.67;10.00;;;;;;;;5071117;27;46498;-41
2023/10/07 01:02:30;;;;;;;;;11.00;8.33;;;;;;;;5076864;27;45508;-42
2023/10/07 01:07:54;;;;;;;;;4.00;4.00;;;;;;;;5049152;27;45287;-42
2023/10/07 01:10:24;;;;;;;;;7.33;7.00;;;;;;;;5075552;27;46263;-42
2023/10/07 01:12:51;;;;;;;;;12.00;11.33;;;;;;;;5074580;27;45615;-41
2023/10/07 01:17:53;;;;;;;;;10.33;10.33;;;;;;;;5074024;27;45287;-41
2023/10/07 01:20:22;;;;;;;;;11.67;8.00;;;;;;;;5074148;27;45756;-42
2023/10/07 01:23:04;;;;;;;;;16.33;10.33;;;;;;;;5075592;27;45481;-41
2023/10/07 01:25:37;;;;;;;;;8.00;8.00;;;;;;;;5071092;27;45350;-41
2023/10/07 01:28:04;;;;;;;;;9.33;9.33;;;;;;;;5072918;28;45560;-42
2023/10/07 01:30:30;;;;;;;;;9.33;8.00;;;;;;;;5071722;28;45457;-42
2023/10/07 01:33:22;;;;;;;;;8.33;8.33;;;;;;;;5064313;27;45433;-42
2023/10/07 01:38:32;;;;;;;;;9.67;8.67;;;;;;;;5072972;27;45587;-42
2023/10/07 01:41:06;;;;;;;;;8.00;8.00;;;;;;;;5070675;27;46378;-42
2023/10/07 01:43:39;;;;;;;;;7.00;6.00;;;;;;;;5072024;27;45605;-43
2023/10/07 01:46:07;;;;;;;;;8.00;8.00;;;;;;;;5075846;27;45635;-41
2023/10/07 01:48:35;;;;;;;;;11.33;9.33;;;;;;;;5070999;27;46268;-41
2023/10/07 01:51:04;;;;;;;;;8.00;7.00;;;;;;;;5074274;27;46330;-41
2023/10/07 01:53:30;;;;;;;;;13.67;8.33;;;;;;;;5073012;27;45743;-41
2023/10/07 01:55:55;;;;;;;;;7.00;7.00;;;;;;;;5071845;27;45451;-42
2023/10/07 01:58:20;;;;;;;;;10.33;9.00;;;;;;;;5072475;27;47342;-41
2023/10/07 02:00:48;;;;;;;;;8.33;8.33;;;;;;;;5073093;27;46000;-42
2023/10/07 02:03:16;;;;;;;;;10.33;9.67;;;;;;;;5072642;27;45540;-42
2023/10/07 02:05:46;;;;;;;;;11.00;9.33;;;;;;;;5071461;28;45390;-42
2023/10/07 02:08:14;;;;;;;;;8.67;8.67;;;;;;;;5068770;27;45455;-42
2023/10/07 02:10:42;;;;;;;;;12.33;10.00;;;;;;;;5072506;27;45348;-42
2023/10/07 02:13:14;;;;;;;;;8.00;8.00;;;;;;;;5071219;27;45366;-42
2023/10/07 02:15:42;;;;;;;;;13.33;9.33;;;;;;;;5067488;28;45588;-41
2023/10/07 02:18:12;;;;;;;;;15.00;9.67;;;;;;;;5073815;27;45716;-42
2023/10/07 02:20:40;;;;;;;;;9.33;9.33;;;;;;;;5069356;27;46880;-41
2023/10/07 02:23:12;;;;;;;;;10.00;9.33;;;;;;;;5072934;27;46941;-42
2023/10/07 02:25:40;;;;;;;;;8.00;7.00;;;;;;;;5074138;27;45813;-42
2023/10/07 02:28:05;;;;;;;;;10.00;9.00;;;;;;;;5076965;27;45428;-41
2023/10/07 02:30:38;;;;;;;;;9.00;9.00;;;;;;;;5074260;27;45377;-42
2023/10/07 02:33:07;;;;;;;;;9.00;9.00;;;;;;;;5076284;27;45463;-41
2023/10/07 02:35:32;;;;;;;;;14.33;11.00;;;;;;;;5076928;27;45355;-41
2023/10/07 02:38:02;;;;;;;;;9.33;8.33;;;;;;;;5075304;27;45211;-41
2023/10/07 02:40:48;;;;;;;;;9.00;8.33;;;;;;;;5075444;27;45291;-42
2023/10/07 02:43:15;;;;;;;;;9.33;9.00;;;;;;;;5064177;28;45800;-43
2023/10/07 02:45:42;;;;;;;;;8.67;8.67;;;;;;;;5081215;27;45450;-42
2023/10/07 02:48:11;;;;;;;;;10.33;9.33;;;;;;;;5075420;27;45371;-42
2023/10/07 02:50:40;;;;;;;;;10.67;9.33;;;;;;;;5079571;27;45364;-42
2023/10/07 02:53:11;;;;;;;;;8.33;6.67;;;;;;;;5071836;27;45421;-41
2023/10/07 02:55:46;;;;;;;;;10.33;10.33;;;;;;;;5081283;27;45659;-41
2023/10/07 02:58:13;;;;;;;;;8.33;8.33;;;;;;;;5081797;27;45899;-41
2023/10/07 03:00:38;;;;;;;;;9.67;9.00;;;;;;;;5077516;28;45346;-41
2023/10/07 03:06:07;;;;;;;;;12.00;9.00;;;;;;;;5011546;28;45198;-41
2023/10/07 03:11:39;;;;;;;;;10.00;9.00;;;;;;;;5080480;27;46061;-40
2023/10/07 03:14:04;;;;;;;;;6.00;5.00;;;;;;;;5077605;27;45406;-40
2023/10/07 03:16:35;;;;;;;;;13.00;9.00;;;;;;;;5089146;27;45420;-41
2023/10/07 03:24:13;;;;;;;;;9.00;9.00;;;;;;;;5081629;27;45537;-41
2023/10/07 03:26:40;;;;;;;;;12.00;10.33;;;;;;;;5081604;27;45248;-41
2023/10/07 03:29:05;;;;;;;;;14.67;10.67;;;;;;;;5074673;27;45237;-41
2023/10/07 03:31:35;;;;;;;;;11.00;9.67;;;;;;;;5069639;27;46112;-41
2023/10/07 03:34:11;;;;;;;;;11.33;10.33;;;;;;;;5079402;27;46313;-40
2023/10/07 03:37:14;;;;;;;;;12.33;12.33;;;;;;;;5073148;27;45425;-42
2023/10/07 03:42:15;;;;;;;;;9.00;9.00;;;;;;;;5079799;27;45607;-40
2023/10/07 03:44:40;;;;;;;;;10.00;9.67;;;;;;;;5079181;27;45200;-41
2023/10/07 03:47:10;;;;;;;;;9.33;9.00;;;;;;;;5079964;27;45338;-41
2023/10/07 03:49:39;;;;;;;;;16.33;11.67;;;;;;;;5077116;27;45592;-40
2023/10/07 03:52:07;;;;;;;;;13.00;9.67;;;;;;;;5082165;27;46232;-41
2023/10/07 03:54:33;;;;;;;;;17.33;11.67;;;;;;;;5074339;27;45416;-40
2023/10/07 03:57:01;;;;;;;;;8.67;8.00;;;;;;;;5074143;27;45497;-40
2023/10/07 03:59:27;;;;;;;;;13.00;9.33;;;;;;;;5073478;27;45514;-40
2023/10/07 04:01:53;;;;;;;;;14.00;12.00;;;;;;;;5078915;27;45748;-40
2023/10/07 04:04:21;;;;;;;;;9.67;8.67;;;;;;;;5072758;27;45430;-41
2023/10/07 04:06:47;;;;;;;;;10.00;10.00;;;;;;;;5088151;27;45700;-41
2023/10/07 04:09:13;;;;;;;;;12.33;11.00;;;;;;;;5073606;27;45404;-41
2023/10/07 04:11:39;;;;;;;;;9.67;8.67;;;;;;;;5082161;27;45759;-42
2023/10/07 04:14:19;;;;;;;;;12.67;10.00;;;;;;;;5077264;27;45464;-41
2023/10/07 04:16:47;;;;;;;;;14.33;10.67;;;;;;;;5073966;27;45245;-41
2023/10/07 04:21:44;;;;;;;;;13.67;11.33;;;;;;;;5079735;27;45461;-41
2023/10/07 04:24:10;;;;;;;;;13.00;11.33;;;;;;;;5077498;27;45584;-41
2023/10/07 04:26:39;;;;;;;;;12.00;8.33;;;;;;;;5075773;27;45228;-41
2023/10/07 04:29:07;;;;;;;;;11.67;8.00;;;;;;;;5078722;27;45480;-41
2023/10/07 04:31:37;;;;;;;;;14.00;9.33;;;;;;;;5077907;28;46046;-42
2023/10/07 04:34:15;;;;;;;;;12.00;10.00;;;;;;;;5074812;27;46717;-40
2023/10/07 04:39:28;;;;;;;;;13.67;8.33;;;;;;;;5074277;28;45631;-41
2023/10/07 04:41:58;;;;;;;;;11.67;9.67;;;;;;;;5081118;27;46317;-40
2023/10/07 04:45:16;;;;;;;;;12.00;10.00;;;;;;;;5072406;27;45697;-40
2023/10/07 04:50:02;;;;;;;;;10.33;8.00;;;;;;;;5078707;27;47148;-40
2023/10/07 04:52:30;;;;;;;;;12.00;9.00;;;;;;;;5084066;27;46869;-40
2023/10/07 04:54:58;;;;;;;;;9.67;8.00;;;;;;;;5084189;27;45650;-40
2023/10/07 05:00:08;;;;;;;;;13.00;12.33;;;;;;;;5083709;27;45444;-40
2023/10/07 05:02:34;;;;;;;;;9.67;9.67;;;;;;;;5067472;27;46493;-41
2023/10/07 05:05:00;;;;;;;;;10.67;10.33;;;;;;;;5084627;27;45693;-42
2023/10/07 05:07:26;;;;;;;;;12.33;12.33;;;;;;;;5077787;27;45508;-41
2023/10/07 05:09:52;;;;;;;;;10.67;9.00;;;;;;;;5074780;27;45784;-41
2023/10/07 05:12:19;;;;;;;;;10.67;9.67;;;;;;;;5077911;27;45499;-42
2023/10/07 05:14:45;;;;;;;;;9.00;9.00;;;;;;;;5079854;27;45307;-41
2023/10/07 05:17:11;;;;;;;;;12.00;11.00;;;;;;;;5071243;27;45664;-41
2023/10/07 05:19:37;;;;;;;;;13.67;10.67;;;;;;;;5073389;27;45438;-42
2023/10/07 05:22:14;;;;;;;;;14.33;8.67;;;;;;;;5071741;27;46365;-42
2023/10/07 05:24:41;;;;;;;;;15.00;10.33;;;;;;;;5080642;27;45204;-41
2023/10/07 05:27:06;;;;;;;;;12.67;10.33;;;;;;;;5080952;27;45716;-41
2023/10/07 05:29:31;;;;;;;;;9.33;8.33;;;;;;;;5077618;27;45680;-41
2023/10/07 05:31:57;;;;;;;;;14.00;10.50;;;;;;;;5081645;27;45459;-41
2023/10/07 05:34:22;;;;;;;;;11.33;9.00;;;;;;;;5078038;27;45555;-41
2023/10/07 05:36:48;;;;;;;;;14.00;12.33;;;;;;;;5077965;27;45399;-42
2023/10/07 05:39:15;;;;;;;;;10.00;9.33;;;;;;;;5076972;27;45441;-42
2023/10/07 05:41:41;;;;;;;;;9.33;9.33;;;;;;;;5077439;27;46339;-41
2023/10/07 05:44:06;;;;;;;;;10.33;9.00;;;;;;;;5077934;27;45710;-41
2023/10/07 05:46:32;;;;;;;;;10.33;8.00;;;;;;;;5074807;27;46321;-41
2023/10/07 05:48:59;;;;;;;;;10.33;8.00;;;;;;;;5080639;27;45230;-41
2023/10/07 05:51:24;;;;;;;;;9.67;8.00;;;;;;;;5066391;27;45445;-41
2023/10/07 05:53:49;;;;;;;;;8.67;7.33;;;;;;;;5079406;27;45137;-41
2023/10/07 05:56:14;;;;;;;;;10.67;9.00;;;;;;;;5072134;27;45152;-41
2023/10/07 05:58:40;;;;;;;;;9.00;9.00;;;;;;;;5078041;27;45431;-41
2023/10/07 06:01:05;;;;;;;;;9.00;9.00;;;;;;;;5070022;28;46246;-41
2023/10/07 06:03:32;;;;;;;;;9.00;7.00;;;;;;;;5076792;27;45439;-41
2023/10/07 06:05:58;;;;;;;;;11.67;9.00;;;;;;;;5079049;27;45341;-41
2023/10/07 06:08:26;;;;;;;;;14.33;12.33;;;;;;;;5075288;28;45516;-41
2023/10/07 06:10:52;;;;;;;;;15.33;13.67;;;;;;;;5075580;28;47292;-41
2023/10/07 06:13:18;;;;;;;;;12.33;11.00;;;;;;;;5076551;27;45561;-42
2023/10/07 06:15:44;;;;;;;;;12.33;10.67;;;;;;;;5077780;27;45474;-41
2023/10/07 06:18:10;;;;;;;;;14.00;11.67;;;;;;;;5072049;27;45325;-41
2023/10/07 06:20:38;;;;;;;;;10.67;10.67;;;;;;;;5079341;27;46021;-41
2023/10/07 06:23:13;;;;;;;;;10.00;9.00;;;;;;;;5075289;28;45415;-42
2023/10/07 06:25:41;;;;;;;;;11.00;11.00;;;;;;;;5078164;28;45310;-42
2023/10/07 06:28:07;;;;;;;;;9.00;9.00;;;;;;;;5076737;27;45618;-42
2023/10/07 06:30:32;;;;;;;;;8.33;8.00;;;;;;;;5075952;27;46267;-41
2023/10/07 06:32:58;;;;;;;;;13.67;12.00;;;;;;;;5070317;27;45440;-42
2023/10/07 06:35:25;;;;;;;;;11.67;11.67;;;;;;;;5080304;27;45480;-42
2023/10/07 06:37:57;;;;;;;;;11.67;10.33;;;;;;;;5080625;27;45514;-41
2023/10/07 06:40:26;;;;;;;;;13.33;12.00;;;;;;;;5078428;27;45393;-41
2023/10/07 06:42:56;;;;;;;;;11.00;10.33;;;;;;;;5078071;27;45524;-41
2023/10/07 06:45:21;;;;;;;;;10.00;9.67;;;;;;;;5079176;27;46771;-41
2023/10/07 06:47:46;;;;;;;;;15.33;13.00;;;;;;;;5080144;27;45456;-42
2023/10/07 06:50:23;;;;;;;;;9.00;8.00;;;;;;;;5077992;27;45476;-41
2023/10/07 06:52:49;;;;;;;;;11.67;11.67;;;;;;;;5079926;27;45367;-41
2023/10/07 06:55:15;;;;;;;;;11.67;9.33;;;;;;;;5077081;27;45486;-41
2023/10/07 06:57:42;;;;;;;;;15.33;13.00;;;;;;;;5077132;27;45469;-42
2023/10/07 07:00:09;;;;;;;;;14.33;9.33;;;;;;;;5072816;27;46002;-43
2023/10/07 07:02:35;;;;;;;;;11.67;10.33;;;;;;;;5074317;27;45546;-42
2023/10/07 07:05:10;;;;;;;;;12.33;10.00;;;;;;;;5075366;27;45530;-43
2023/10/07 07:07:37;;;;;;;;;10.00;10.00;;;;;;;;5076947;27;45597;-55
2023/10/07 07:10:07;;;;;;;;;10.33;8.67;;;;;;;;5075171;27;47246;-57
2023/10/07 07:12:33;;;;;;;;;13.00;10.00;;;;;;;;5076735;27;45425;-56
2023/10/07 07:15:25;;;;;;;;;14.00;11.33;;;;;;;;5075347;27;45568;-57
2023/10/07 07:18:00;;;;;;;;;9.33;9.00;;;;;;;;5074715;27;45553;-56
2023/10/07 07:20:48;;;;;;;;;14.67;13.00;;;;;;;;5078651;27;45310;-56
2023/10/07 07:23:16;;;;;;;;;12.33;12.33;;;;;;;;5073401;27;45523;-56
2023/10/07 07:25:42;;;;;;;;;10.33;10.00;;;;;;;;5078689;27;45385;-54
2023/10/07 07:28:09;;;;;;;;;15.67;12.33;;;;;;;;5079352;27;45425;-58
2023/10/07 07:30:35;;;;;;;;;13.00;11.67;;;;;;;;5076361;27;45400;-58
2023/10/07 07:33:08;;;;;;;;;14.33;12.33;;;;;;;;5080642;27;45460;-56
2023/10/07 07:35:40;;;;;;;;;13.33;12.67;;;;;;;;5077237;27;45539;-51
2023/10/07 07:41:01;;;;;;;;;16.00;13.00;;;;;;;;5073362;27;45661;-45
2023/10/07 07:43:26;;;;;;;;;12.67;12.00;;;;;;;;5072748;27;45433;-50
2023/10/07 07:45:57;;;;;;;;;11.00;11.00;;;;;;;;5078827;27;45320;-50
2023/10/07 07:48:25;;;;;;;;;14.67;13.67;;;;;;;;5073579;27;45570;-49
2023/10/07 07:50:52;;;;;;;;;13.67;13.00;;;;;;;;5078044;27;47421;-53
2023/10/07 07:53:18;;;;;;;;;13.00;12.67;;;;;;;;5076317;27;45289;-51
2023/10/07 07:55:43;;;;;;;;;18.00;13.67;;;;;;;;5078406;27;45687;-53
2023/10/07 07:58:09;;;;;;;;;16.00;16.00;;;;;;;;5080263;27;45510;-53
2023/10/07 08:00:40;;;;;;;;;18.33;14.33;;;;;;;;5076780;27;46455;-52
2023/10/07 08:03:07;;;;;;;;;12.33;12.00;;;;;;;;5077116;27;45478;-52
2023/10/07 08:05:34;;;;;;;;;12.67;12.67;;;;;;;;5076435;27;47046;-51
2023/10/07 08:08:09;;;;;;;;;17.33;12.33;;;;;;;;5071325;27;45500;-53
2023/10/07 08:10:35;;;;;;;;;17.00;14.67;;;;;;;;5076851;27;46796;-53
2023/10/07 08:13:01;;;;;;;;;11.00;10.67;;;;;;;;5068744;27;45505;-53
2023/10/07 08:15:38;;;;;;;;;16.67;13.67;;;;;;;;5077654;28;45496;-53
2023/10/07 08:18:06;;;;;;;;;16.00;15.00;;;;;;;;5075091;27;45500;-52
2023/10/07 08:20:37;;;;;;;;;13.67;13.33;;;;;;;;5060683;28;47413;-54
2023/10/07 08:23:07;;;;;;;;;10.67;10.67;;;;;;;;5079051;27;45320;-51
2023/10/07 08:25:58;;;;;;;;;10.00;10.00;;;;;;;;5077399;27;45513;-53
2023/10/07 08:28:38;;;;;;;;;13.00;12.00;;;;;;;;5078825;27;45379;-54
2023/10/07 08:31:13;;;;;;;;;16.33;13.67;;;;;;;;5075526;27;47208;-53
2023/10/07 08:33:39;;;;;;;;;12.33;11.33;;;;;;;;5076423;27;45827;-51
2023/10/07 08:36:07;;;;;;;;;12.33;10.67;;;;;;;;5078036;27;45877;-53
2023/10/07 08:38:40;;;;;;;;;13.33;12.67;;;;;;;;5073787;27;46796;-55
2023/10/07 08:41:07;;;;;;;;;13.67;13.67;;;;;;;;5075816;27;46810;-53
2023/10/07 08:43:35;;;;;;;;;13.33;11.00;;;;;;;;5075009;27;45514;-52
2023/10/07 08:46:01;;;;;;;;;12.67;12.67;;;;;;;;5075739;27;45525;-52
2023/10/07 08:48:28;;;;;;;;;12.00;12.00;;;;;;;;5076281;27;46884;-54
2023/10/07 08:50:58;;;;;;;;;14.67;12.00;;;;;;;;5075142;27;46417;-54
2023/10/07 08:53:24;;;;;;;;;16.00;13.33;;;;;;;;5072300;27;45743;-53
2023/10/07 08:55:51;;;;;;;;;11.67;11.67;;;;;;;;5070916;27;45490;-52
2023/10/07 08:58:17;;;;;;;;;13.67;12.00;;;;;;;;5074973;27;45549;-54
2023/10/07 09:00:45;;;;;;;;;12.33;11.00;;;;;;;;5072707;27;46140;-54
2023/10/07 09:03:15;;;;;;;;;10.00;10.00;;;;;;;;5075776;27;45416;-53
2023/10/07 09:05:49;;;;;;;;;9.00;8.00;;;;;;;;5074407;27;45527;-51
2023/10/07 09:08:15;;;;;;;;;10.33;9.33;;;;;;;;5073993;27;45580;-53
2023/10/07 09:10:40;;;;;;;;;15.00;12.00;;;;;;;;5077117;27;45941;-53
2023/10/07 09:13:12;;;;;;;;;13.00;11.33;;;;;;;;5074896;27;46061;-52
2023/10/07 09:15:42;;;;;;;;;10.00;7.67;;;;;;;;5077796;27;45403;-51
2023/10/07 09:18:10;;;;;;;;;10.33;9.33;;;;;;;;5073901;27;45332;-50
2023/10/07 09:20:43;;;;;;;;;11.67;9.67;;;;;;;;5080015;27;46674;-51
2023/10/07 09:23:15;;;;;;;;;12.33;10.67;;;;;;;;5077117;27;45512;-52
2023/10/07 09:25:46;;;;;;;;;11.33;9.00;;;;;;;;5071272;27;46772;-52
2023/10/07 09:28:12;;;;;;;;;10.67;10.67;;;;;;;;5075880;27;45366;-54
2023/10/07 09:30:44;;;;;;;;;8.67;8.67;;;;;;;;5075244;27;46930;-53
2023/10/07 09:33:15;;;;;;;;;7.00;7.00;;;;;;;;5076821;27;45473;-52
2023/10/07 09:35:42;;;;;;;;;11.33;10.33;;;;;;;;5078120;27;45504;-53
2023/10/07 09:38:33;;;;;;;;;13.00;10.00;;;;;;;;5077246;27;45668;-52
2023/10/07 09:41:12;;;;;;;;;11.00;9.33;;;;;;;;5072472;28;47166;-53
2023/10/07 09:43:42;;;;;;;;;7.33;7.33;;;;;;;;5072342;27;45367;-53
2023/10/07 09:46:07;;;;;;;;;9.00;9.00;;;;;;;;5077534;27;45401;-52
2023/10/07 09:48:33;;;;;;;;;8.00;8.00;;;;;;;;5075508;27;45613;-54
2023/10/07 09:50:59;;;;;;;;;8.33;8.00;;;;;;;;5075815;27;46940;-56
2023/10/07 09:53:36;;;;;;;;;8.67;8.67;;;;;;;;5069623;27;45404;-53
2023/10/07 09:56:21;;;;;;;;;8.75;7.00;;;;;;;;5066773;27;45346;-55
2023/10/07 09:59:02;;;;;;;;;10.00;8.50;;;;;;;;5075364;27;45339;-55
2023/10/07 10:02:16;;;;;;;;;8.50;8.25;;;;;;;;5067258;27;46270;-53
2023/10/07 10:04:50;;;;;;;;;8.00;7.00;;;;;;;;5001550;28;45840;-54
2023/10/07 10:07:42;;;;;;;;;11.00;8.00;;;;;;;;5014068;28;45424;-54
2023/10/07 10:10:12;;;;;;;;;9.50;9.50;;;;;;;;5064640;27;45487;-53
2023/10/07 10:12:48;;;;;;;;;7.75;7.75;;;;;;;;5080980;27;46409;-53
2023/10/07 10:17:53;;;;;;;;;6.75;6.75;;;;;;;;5078485;27;45282;-52
2023/10/07 10:20:20;;;;;;;;;7.25;7.25;;;;;;;;5081178;27;45489;-53
2023/10/07 10:22:48;;;;;;;;;8.25;6.00;;;;;;;;5081191;27;46119;-52
2023/10/07 10:25:16;;;;;;;;;5.25;5.25;;;;;;;;5081196;27;45451;-51
2023/10/07 10:27:44;;;;;;;;;8.50;6.75;;;;;;;;5080017;27;45278;-53
2023/10/07 10:30:21;;;;;;;;;10.00;8.75;;;;;;;;5078168;27;45765;-53
2023/10/07 10:32:49;;;;;;;;;4.25;4.25;;;;;;;;5073713;27;45547;-53
2023/10/07 10:35:21;;;;;;;;;6.25;6.25;;;;;;;;5094723;27;45420;-52
2023/10/07 10:37:54;;;;;;;;;7.50;6.00;;;;;;;;5090727;27;45385;-53
2023/10/07 10:40:19;;;;;;;;;7.00;4.00;;;;;;;;5082749;27;45475;-53
2023/10/07 10:42:48;;;;;;;;;5.00;5.00;;;;;;;;5082069;27;45588;-53
2023/10/07 10:45:21;;;;;;;;;7.75;6.25;;;;;;;;5080923;27;45725;-54
2023/10/07 10:47:47;;;;;;;;;6.75;5.50;;;;;;;;5081348;27;45283;-53
2023/10/07 10:50:16;;;;;;;;;5.25;5.25;;;;;;;;5092607;27;45651;-52
2023/10/07 10:52:42;;;;;;;;;6.75;5.00;;;;;;;;5082534;27;46332;-54
2023/10/07 10:55:08;;;;;;;;;3.50;3.50;;;;;;;;5086264;27;45271;-54
2023/10/07 10:57:38;;;;;;;;;6.25;4.75;;;;;;;;5079381;27;45358;-54
2023/10/07 11:00:16;;;;;;;;;4.00;4.00;;;;;;;;5079969;27;45716;-54
2023/10/07 11:02:41;;;;;;;;;5.25;5.25;;;;;;;;5077819;27;47105;-55
2023/10/07 11:05:08;;;;;;;;;4.50;3.25;;;;;;;;5081056;27;45465;-54
2023/10/07 11:07:36;;;;;;;;;5.75;5.00;;;;;;;;5078431;27;45531;-55
2023/10/07 11:10:04;;;;;;;;;4.00;3.25;;;;;;;;5080309;27;45496;-54
2023/10/07 11:12:29;;;;;;;;;3.50;3.25;;;;;;;;5079106;27;47154;-54
2023/10/07 11:15:03;;;;;;;;;4.75;3.50;;;;;;;;5078904;27;45401;-53
2023/10/07 11:17:28;;;;;;;;;6.50;4.00;;;;;;;;5076569;27;45326;-50
2023/10/07 11:19:54;;;;;;;;;4.25;4.25;;;;;;;;5086641;27;45633;-55
2023/10/07 11:22:20;;;;;;;;;5.50;4.00;;;;;;;;5077769;27;46252;-54
2023/10/07 11:24:51;;;;;;;;;5.00;5.00;;;;;;;;5080394;27;45635;-55
2023/10/07 11:27:17;;;;;;;;;4.75;4.75;;;;;;;;5079228;27;45404;-55
2023/10/07 11:29:43;;;;;;;;;4.25;4.25;;;;;;;;5077175;27;45414;-55
2023/10/07 11:32:09;;;;;;;;;5.00;5.00;;;;;;;;5076879;27;47037;-54
2023/10/07 11:34:38;;;;;;;;;4.00;4.00;;;;;;;;5077824;27;45727;-54
2023/10/07 11:37:09;;;;;;;;;7.50;5.00;;;;;;;;5080078;27;45388;-54
2023/10/07 11:39:38;;;;;;;;;7.50;5.00;;;;;;;;5076903;27;45555;-55
2023/10/07 11:42:05;;;;;;;;;5.00;5.00;;;;;;;;5079158;27;45526;-54
2023/10/07 11:44:31;;;;;;;;;4.00;4.00;;;;;;;;5076898;27;45802;-55
2023/10/07 11:46:56;;;;;;;;;5.25;4.00;;;;;;;;5079198;27;45365;-55
2023/10/07 11:49:22;;;;;;;;;4.00;4.00;;;;;;;;5076795;27;45441;-52
2023/10/07 11:51:47;;;;;;;;;4.50;3.50;;;;;;;;5074004;27;45766;-56
2023/10/07 11:54:12;;;;;;;;;5.75;5.75;;;;;;;;5072782;27;45457;-55
2023/10/07 11:56:39;;;;;;;;;5.50;4.00;;;;;;;;5070890;27;45525;-56
2023/10/07 11:59:05;;;;;;;;;5.00;5.00;;;;;;;;5078289;27;45444;-56
2023/10/07 12:01:32;;;;;;;;;4.75;4.75;;;;;;;;5071824;27;48100;-56
2023/10/07 12:03:57;;;;;;;;;5.75;4.00;;;;;;;;5078336;27;45456;-56
2023/10/07 12:06:24;;;;;;;;;6.25;4.25;;;;;;;;5077382;27;45391;-57
2023/10/07 12:08:49;;;;;;;;;3.50;3.00;;;;;;;;5085831;27;45612;-55
2023/10/07 12:11:18;;;;;;;;;4.25;4.25;;;;;;;;5079276;27;45784;-55
2023/10/07 12:13:43;;;;;;;;;4.00;4.00;;;;;;;;5076139;27;45583;-55
2023/10/07 12:16:09;;;;;;;;;7.00;6.00;;;;;;;;5076290;27;45552;-55
2023/10/07 12:18:34;;;;;;;;;6.00;4.25;;;;;;;;5078696;27;45529;-54
2023/10/07 12:21:00;;;;;;;;;4.00;4.00;;;;;;;;5077184;27;45725;-54
2023/10/07 12:23:27;;;;;;;;;3.00;2.00;;;;;;;;5077819;27;45445;-54
2023/10/07 12:25:52;;;;;;;;;4.50;3.25;;;;;;;;5078668;27;45501;-55
2023/10/07 12:28:18;;;;;;;;;5.00;4.00;;;;;;;;5077844;27;45575;-57
2023/10/07 12:30:44;;;;;;;;;5.00;5.00;;;;;;;;5077671;27;47029;-54
2023/10/07 12:33:09;;;;;;;;;6.50;5.25;;;;;;;;5075749;27;45556;-54
2023/10/07 12:35:34;;;;;;;;;5.25;4.00;;;;;;;;5075507;27;45202;-42
2023/10/07 12:38:00;;;;;;;;;6.00;4.67;;;;;;;;5074717;27;45471;-41
2023/10/07 12:40:28;;;;;;;;;6.00;5.00;;;;;;;;5076840;27;46136;-43
2023/10/07 12:42:54;;;;;;;;;4.00;4.00;;;;;;;;5073843;27;45641;-42
2023/10/07 12:45:20;;;;;;;;;4.00;4.00;;;;;;;;5076225;28;45448;-42
2023/10/07 12:47:45;;;;;;;;;6.25;5.00;;;;;;;;5075681;28;45355;-47
2023/10/07 12:50:29;;;;;;;;;6.50;5.75;;;;;;;;5078785;27;45477;-45
2023/10/07 12:52:58;;;;;;;;;8.00;6.25;;;;;;;;5076378;27;45420;-45
2023/10/07 12:55:30;;;;;;;;;3.50;3.50;;;;;;;;5076852;27;45314;-45
2023/10/07 12:57:55;;;;;;;;;3.50;3.50;;;;;;;;5075658;27;45569;-44
2023/10/07 13:00:23;;;;;;;;;5.00;5.00;;;;;;;;5076301;27;46041;-43
2023/10/07 13:02:49;;;;;;;;;5.25;3.75;;;;;;;;5074065;28;45649;-44
2023/10/07 13:05:18;;;;;;;;;4.00;4.00;;;;;;;;5075851;27;45534;-45
2023/10/07 13:07:46;;;;;;;;;4.00;4.00;;;;;;;;5078315;28;45520;-46
2023/10/07 13:10:11;;;;;;;;;7.00;7.00;;;;;;;;5075577;28;46176;-46
2023/10/07 13:12:37;;;;;;;;;3.00;3.00;;;;;;;;5077709;28;45582;-46
2023/10/07 13:15:03;;;;;;;;;2.25;2.00;;;;;;;;5079132;28;45306;-47
2023/10/07 13:17:29;;;;;;;;;2.00;2.00;;;;;;;;5074661;28;45288;-43
2023/10/07 13:19:55;;;;;;;;;4.00;3.00;;;;;;;;5069282;28;45358;-44
2023/10/07 13:22:20;;;;;;;;;3.50;3.50;;;;;;;;5076654;28;45414;-43
2023/10/07 13:24:46;;;;;;;;;4.75;3.25;;;;;;;;5078865;27;45203;-44
2023/10/07 13:27:14;;;;;;;;;3.00;3.00;;;;;;;;5072249;28;45176;-44
2023/10/07 13:29:40;;;;;;;;;2.50;2.50;;;;;;;;5074630;27;45491;-45
2023/10/07 13:32:09;;;;;;;;;2.00;2.00;;;;;;;;5079660;27;45580;-45
2023/10/07 13:34:38;;;;;;;;;3.75;3.75;;;;;;;;5079274;27;45286;-46
2023/10/07 13:37:06;;;;;;;;;4.25;4.25;;;;;;;;5079807;27;45528;-45
2023/10/07 13:39:31;;;;;;;;;4.75;3.25;;;;;;;;5076084;27;47136;-43
2023/10/07 13:41:56;;;;;;;;;2.75;2.75;;;;;;;;5080625;27;45247;-44
2023/10/07 13:44:22;;;;;;;;;2.75;2.00;;;;;;;;5080789;27;46423;-44
2023/10/07 13:46:48;;;;;;;;;2.75;2.50;;;;;;;;5084512;27;45301;-45
2023/10/07 13:49:13;;;;;;;;;2.25;2.25;;;;;;;;5080093;27;47131;-43
2023/10/07 13:51:43;;;;;;;;;5.50;4.00;;;;;;;;5074975;27;44927;-43
2023/10/07 13:56:54;;;;;;;;;3.00;2.00;;;;;;;;5087139;27;45377;-42
2023/10/07 13:59:19;;;;;;;;;3.00;3.00;;;;;;;;5079075;27;45664;-44
2023/10/07 14:01:46;;;;;;;;;4.00;2.50;;;;;;;;5080058;27;45479;-42
2023/10/07 14:04:15;;;;;;;;;3.00;3.00;;;;;;;;5075954;27;45307;-43
2023/10/07 14:06:41;;;;;;;;;6.50;6.00;;;;;;;;5087750;27;45499;-43
2023/10/07 14:09:16;;;;;;;;;3.50;3.50;;;;;;;;5081616;27;45484;-45
2023/10/07 14:11:45;;;;;;;;;3.00;3.00;;;;;;;;5079485;27;45958;-43
2023/10/07 14:14:11;;;;;;;;;5.00;5.00;;;;;;;;5078767;27;45417;-43
2023/10/07 14:16:36;;;;;;;;;2.00;2.00;;;;;;;;5084630;27;45585;-43
2023/10/07 14:19:01;;;;;;;;;4.00;4.00;;;;;;;;5069465;27;45679;-41
2023/10/07 14:21:26;;;;;;;;;3.25;2.00;;;;;;;;5076232;28;45527;-43
2023/10/07 14:23:52;;;;;;;;;6.50;3.75;;;;;;;;5080650;27;45538;-43
2023/10/07 14:26:17;;;;;;;;;2.75;2.75;;;;;;;;5080911;27;45586;-47
2023/10/07 14:28:44;;;;;;;;;5.75;4.75;;;;;;;;5073403;27;46209;-45
2023/10/07 14:31:14;;;;;;;;;3.75;2.50;;;;;;;;5073548;27;45528;-43
2023/10/07 14:33:40;;;;;;;;;3.00;3.00;;;;;;;;5069380;28;45314;-43
2023/10/07 14:36:11;;;;;;;;;2.75;2.75;;;;;;;;5071733;27;45432;-43
2023/10/07 14:38:37;;;;;;;;;3.00;3.00;;;;;;;;5070457;27;46190;-44
2023/10/07 14:41:03;;;;;;;;;4.75;4.75;;;;;;;;5068684;27;46100;-46
2023/10/07 14:43:29;;;;;;;;;15.00;15.00;;;;;;;;5078211;27;45297;-44
2023/10/07 14:45:55;;;;;;;;;9.00;3.25;;;;;;;;5070925;27;45562;-43
2023/10/07 14:48:21;;;;;;;;;7.25;7.25;;;;;;;;5077898;27;45231;-43
2023/10/07 14:50:47;;;;;;;;;3.00;2.75;;;;;;;;5072972;27;46338;-45
2023/10/07 14:53:12;;;;;;;;;3.00;3.00;;;;;;;;5073585;27;45490;-44
2023/10/07 14:55:38;;;;;;;;;3.00;3.00;;;;;;;;5074627;27;45300;-45
2023/10/07 14:58:03;;;;;;;;;3.50;2.50;;;;;;;;5082763;27;46458;-45
2023/10/07 15:00:32;;;;;;;;;2.25;2.25;;;;;;;;5079802;27;45406;-44
2023/10/07 15:03:01;;;;;;;;;4.25;3.00;;;;;;;;5076094;27;45393;-44
2023/10/07 15:05:27;;;;;;;;;3.50;2.50;;;;;;;;5079452;27;45386;-44
2023/10/07 15:07:52;;;;;;;;;1.50;1.50;;;;;;;;5082092;27;45482;-47
2023/10/07 15:10:18;;;;;;;;;2.50;2.50;;;;;;;;5073703;27;45338;-45
2023/10/07 15:12:43;;;;;;;;;4.00;4.00;;;;;;;;5074219;27;45254;-45
2023/10/07 15:15:13;;;;;;;;;3.50;2.25;;;;;;;;5079877;27;45536;-44
2023/10/07 15:17:38;;;;;;;;;4.00;2.25;;;;;;;;5067517;27;46954;-44
2023/10/07 15:20:05;;;;;;;;;2.25;2.25;;;;;;;;5083331;27;45421;-43
2023/10/07 15:22:31;;;;;;;;;2.50;2.50;;;;;;;;5085113;27;45501;-44
2023/10/07 15:24:59;;;;;;;;;4.25;2.25;;;;;;;;5083449;27;45551;-44
2023/10/07 15:27:24;;;;;;;;;3.50;3.25;;;;;;;;5077688;27;47444;-44
2023/10/07 15:29:49;;;;;;;;;3.00;3.00;;;;;;;;5066172;27;45555;-45